createdAt,value
2022-07-27T00:02:30.040Z,30.25
2022-07-27T00:05:00.549Z,30.00
2022-07-27T00:07:30.676Z,31.67
2022-07-27T00:10:01.238Z,30.00
2022-07-27T00:12:32.416Z,30.25
2022-07-27T00:15:02.912Z,29.00
2022-07-27T00:17:33.841Z,30.00
2022-07-27T00:20:04.537Z,32.00
2022-07-27T00:22:35.527Z,32.00
2022-07-27T00:25:06.972Z,35.25
2022-07-27T00:27:38.223Z,34.00
2022-07-27T00:30:09.201Z,32.50
2022-07-27T00:32:40.403Z,32.00
2022-07-27T00:35:12.316Z,30.25
2022-07-27T00:37:43.227Z,27.00
2022-07-27T00:40:16.605Z,29.00
2022-07-27T00:42:47.885Z,29.00
2022-07-27T00:45:18.424Z,32.00
2022-07-27T00:47:51.814Z,29.00
2022-07-27T00:50:25.377Z,33.00
2022-07-27T00:52:57.620Z,35.25
2022-07-27T00:55:29.556Z,32.25
2022-07-27T00:58:01.633Z,37.00
2022-07-27T01:00:33.294Z,40.00
2022-07-27T01:03:09.091Z,35.33
2022-07-27T01:05:42.906Z,39.00
2022-07-27T01:10:47.911Z,38.00
2022-07-27T01:13:20.278Z,37.50
2022-07-27T01:15:51.712Z,38.75
2022-07-27T01:18:42.240Z,35.00
2022-07-27T01:21:13.142Z,34.00
2022-07-27T01:23:44.408Z,31.00
2022-07-27T01:26:19.752Z,34.75
2022-07-27T01:28:53.825Z,33.33
2022-07-27T01:31:25.470Z,34.00
2022-07-27T01:33:56.625Z,32.00
2022-07-27T01:38:57.997Z,30.67
2022-07-27T01:41:32.008Z,35.00
2022-07-27T01:44:02.978Z,35.75
2022-07-27T01:46:34.199Z,34.75
2022-07-27T01:49:08.847Z,34.00
2022-07-27T01:51:39.805Z,37.50
2022-07-27T01:54:10.707Z,40.67
2022-07-27T01:56:41.659Z,38.67
2022-07-27T01:59:16.102Z,32.50
2022-07-27T02:01:50.383Z,31.75
2022-07-27T02:04:21.489Z,37.67
2022-07-27T02:06:52.822Z,38.50
2022-07-27T02:12:14.740Z,40.00
2022-07-27T02:14:47.025Z,42.25
2022-07-27T02:17:20.979Z,41.50
2022-07-27T02:19:54.224Z,39.75
2022-07-27T02:22:24.995Z,39.25
2022-07-27T02:24:55.979Z,40.75
2022-07-27T02:27:28.647Z,36.00
2022-07-27T02:29:59.733Z,38.50
2022-07-27T02:32:31.005Z,34.75
2022-07-27T02:35:18.781Z,37.00
2022-07-27T02:37:51.439Z,37.50
2022-07-27T02:40:23.402Z,36.25
2022-07-27T02:42:54.572Z,39.33
2022-07-27T02:45:25.789Z,39.00
2022-07-27T02:47:59.472Z,37.00
2022-07-27T02:50:33.622Z,37.50
2022-07-27T02:53:04.550Z,37.50
2022-07-27T02:55:35.481Z,38.67
2022-07-27T02:58:21.637Z,37.00
2022-07-27T03:11:56.840Z,35.00
2022-07-27T03:15:20.574Z,37.00
2022-07-27T03:20:44.500Z,39.00
2022-07-27T03:23:15.515Z,36.33
2022-07-27T03:25:51.143Z,40.00
2022-07-27T03:28:24.725Z,36.00
2022-07-27T03:31:13.332Z,38.00
2022-07-27T03:33:53.545Z,40.50
2022-07-27T03:56:15.323Z,35.00
2022-07-27T03:59:07.739Z,41.00
2022-07-27T04:01:41.143Z,37.00
2022-07-27T04:04:28.466Z,41.75
2022-07-27T04:06:59.897Z,42.00
2022-07-27T04:09:42.533Z,41.00
2022-07-27T04:12:20.008Z,39.00
2022-07-27T04:14:51.217Z,38.50
2022-07-27T04:17:54.997Z,38.75
2022-07-27T04:20:17.044Z,38.00
2022-07-27T04:22:49.374Z,40.00
2022-07-27T04:25:20.329Z,43.75
2022-07-27T04:27:51.974Z,39.75
2022-07-27T04:30:22.810Z,40.00
2022-07-27T04:32:54.009Z,39.00
2022-07-27T04:35:26.761Z,38.75
2022-07-27T04:37:59.805Z,41.00
2022-07-27T04:40:38.596Z,41.25
2022-07-27T04:43:41.835Z,39.00
2022-07-27T04:51:38.964Z,49.50
2022-07-27T04:54:21.706Z,34.75
2022-07-27T04:57:27.073Z,42.00
2022-07-27T05:00:51.481Z,45.00
2022-07-27T05:03:54.225Z,42.00
2022-07-27T05:06:48.288Z,42.50
2022-07-27T05:10:05.974Z,43.00
2022-07-27T05:15:28.995Z,41.25
2022-07-27T05:18:20.909Z,45.00
2022-07-27T05:20:52.154Z,48.00
2022-07-27T05:23:23.363Z,47.00
2022-07-27T05:36:17.882Z,43.00
2022-07-27T05:39:32.353Z,45.00
2022-07-27T05:42:21.307Z,44.33
2022-07-27T05:44:58.480Z,46.00
2022-07-27T05:47:29.372Z,45.00
2022-07-27T05:50:00.555Z,43.50
2022-07-27T05:52:31.536Z,44.67
2022-07-27T05:55:06.057Z,42.75
2022-07-27T05:57:36.971Z,42.00
2022-07-27T06:00:09.131Z,44.00
2022-07-27T06:02:42.966Z,44.25
2022-07-27T06:05:20.696Z,47.00
2022-07-27T06:08:49.107Z,43.00
2022-07-27T06:11:32.159Z,42.75
2022-07-27T06:14:02.807Z,45.50
2022-07-27T06:16:36.181Z,47.50
2022-07-27T06:19:09.717Z,46.50
2022-07-27T06:21:40.633Z,45.50
2022-07-27T06:24:11.339Z,48.00
2022-07-27T06:29:12.086Z,49.00
2022-07-27T06:31:49.420Z,47.00
2022-07-27T06:34:20.271Z,47.75
2022-07-27T06:36:53.588Z,47.00
2022-07-27T06:39:24.083Z,46.75
2022-07-27T06:41:58.088Z,48.25
2022-07-27T06:47:57.407Z,47.00
2022-07-27T06:50:33.940Z,48.25
2022-07-27T06:53:05.683Z,46.67
2022-07-27T06:56:00.771Z,47.00
2022-07-27T06:58:33.350Z,48.00
2022-07-27T07:01:53.471Z,49.75
2022-07-27T07:08:28.184Z,49.00
2022-07-27T07:10:58.980Z,48.00
2022-07-27T07:20:16.429Z,46.50
2022-07-27T07:23:07.548Z,47.00
2022-07-27T07:25:57.451Z,46.00
2022-07-27T07:29:53.885Z,45.50
2022-07-27T07:33:09.784Z,47.00
2022-07-27T07:36:14.989Z,47.00
2022-07-27T07:38:46.247Z,48.00
2022-07-27T07:41:17.521Z,45.00
2022-07-27T07:43:50.192Z,47.75
2022-07-27T07:46:20.829Z,47.00
2022-07-27T07:48:54.370Z,47.50
2022-07-27T07:51:25.035Z,47.25
2022-07-27T07:53:55.831Z,46.00
2022-07-27T07:56:26.143Z,45.50
2022-07-27T07:59:15.911Z,48.50
2022-07-27T08:01:46.899Z,48.00
2022-07-27T08:06:47.311Z,45.75
2022-07-27T08:09:19.079Z,48.00
2022-07-27T08:11:49.230Z,48.00
2022-07-27T08:14:19.843Z,46.75
2022-07-27T08:16:50.479Z,48.50
2022-07-27T08:19:21.149Z,48.00
2022-07-27T08:21:51.983Z,47.00
2022-07-27T08:24:22.394Z,45.00
2022-07-27T08:26:52.872Z,43.67
2022-07-27T08:29:23.661Z,47.00
2022-07-27T08:32:07.511Z,47.00
2022-07-27T08:34:39.927Z,45.75
2022-07-27T08:37:15.358Z,43.33
2022-07-27T08:40:38.414Z,45.00
2022-07-27T08:42:38.733Z,46.75
2022-07-27T08:45:12.589Z,46.75
2022-07-27T08:47:52.230Z,47.75
2022-07-27T08:50:27.329Z,50.00
2022-07-27T08:52:59.950Z,45.50
2022-07-27T08:55:30.627Z,48.00
2022-07-27T08:58:03.400Z,47.75
2022-07-27T09:00:40.475Z,48.00
2022-07-27T09:03:19.057Z,48.50
2022-07-27T09:05:53.497Z,46.75
2022-07-27T09:08:31.221Z,47.00
2022-07-27T09:11:22.029Z,48.00
2022-07-27T09:13:53.814Z,47.00
2022-07-27T09:17:14.927Z,48.00
2022-07-27T09:19:23.598Z,48.00
2022-07-27T09:21:54.395Z,47.00
2022-07-27T09:24:46.283Z,47.25
2022-07-27T09:28:02.822Z,46.00
2022-07-27T09:31:14.679Z,50.00
2022-07-27T09:37:16.733Z,47.00
2022-07-27T09:44:12.314Z,43.00
2022-07-27T09:46:26.577Z,43.75
2022-07-27T09:49:00.081Z,42.00
2022-07-27T09:58:16.200Z,38.00
2022-07-27T10:01:19.052Z,39.00
2022-07-27T10:05:00.055Z,37.50
2022-07-27T10:07:22.484Z,37.75
2022-07-27T10:09:56.869Z,38.75
2022-07-27T10:12:29.200Z,40.00
2022-07-27T10:15:00.111Z,39.00
2022-07-27T10:17:35.098Z,39.33
2022-07-27T10:20:29.018Z,40.00
2022-07-27T10:23:02.718Z,37.00
2022-07-27T10:25:38.045Z,40.00
2022-07-27T10:28:14.856Z,37.50
2022-07-27T10:30:54.307Z,29.75
2022-07-27T10:33:54.265Z,17.50
2022-07-27T10:36:33.797Z,15.00
2022-07-27T10:39:19.771Z,18.00
2022-07-27T10:42:51.875Z,15.67
2022-07-27T10:46:01.612Z,18.00
2022-07-27T10:49:07.426Z,8.50
2022-07-27T10:52:40.202Z,6.00
2022-07-27T10:55:41.567Z,4.50
2022-07-27T10:58:42.229Z,12.00
2022-07-27T11:01:34.712Z,10.00
2022-07-27T11:04:39.058Z,14.50
2022-07-27T11:08:05.142Z,11.00
2022-07-27T11:11:19.579Z,11.50
2022-07-27T11:14:30.329Z,11.00
2022-07-27T11:17:40.054Z,14.50
2022-07-27T11:20:09.720Z,14.00
2022-07-27T11:23:40.699Z,10.50
2022-07-27T11:25:38.079Z,12.00
2022-07-27T11:28:11.650Z,8.50
2022-07-27T11:30:46.430Z,10.00
2022-07-27T11:33:25.985Z,14.00
2022-07-27T11:36:03.295Z,14.75
2022-07-27T11:39:15.069Z,10.50
2022-07-27T11:42:08.440Z,14.75
2022-07-27T11:44:49.528Z,15.00
2022-07-27T11:47:43.554Z,10.00
2022-07-27T11:50:18.888Z,15.00
2022-07-27T11:53:05.016Z,14.00
2022-07-27T11:55:42.858Z,14.00
2022-07-27T11:58:17.415Z,9.50
2022-07-27T12:00:54.095Z,17.25
2022-07-27T12:03:32.057Z,13.00
2022-07-27T12:06:18.186Z,10.50
2022-07-27T12:08:49.145Z,12.67
2022-07-27T12:11:34.297Z,12.00
2022-07-27T12:18:03.151Z,18.50
2022-07-27T12:24:09.471Z,25.25
2022-07-27T12:30:22.140Z,13.00
2022-07-27T12:33:00.625Z,8.00
2022-07-27T12:35:38.782Z,15.00
2022-07-27T12:38:11.800Z,14.33
2022-07-27T12:40:59.868Z,19.67
2022-07-27T12:43:32.339Z,13.00
2022-07-27T12:46:13.879Z,13.33
2022-07-27T12:48:46.842Z,15.00
2022-07-27T12:51:28.009Z,13.33
2022-07-27T12:53:58.915Z,15.00
2022-07-27T12:56:29.570Z,15.00
2022-07-27T13:01:38.291Z,13.50
2022-07-27T13:04:10.301Z,17.00
2022-07-27T13:06:41.259Z,15.00
2022-07-27T13:09:12.778Z,18.25
2022-07-27T13:11:47.651Z,15.00
2022-07-27T13:14:19.290Z,11.00
2022-07-27T13:16:50.510Z,15.00
2022-07-27T13:19:22.444Z,14.50
2022-07-27T13:21:53.811Z,15.00
2022-07-27T13:24:24.741Z,22.00
2022-07-27T13:26:57.714Z,11.33
2022-07-27T13:29:32.219Z,14.75
2022-07-27T13:32:03.056Z,8.00
2022-07-27T13:34:33.908Z,17.00
2022-07-27T13:37:59.664Z,15.00
2022-07-27T13:56:53.399Z,12.50
2022-07-27T14:03:59.023Z,12.00
2022-07-27T14:06:30.305Z,15.00
2022-07-27T14:09:02.099Z,14.75
2022-07-27T14:14:27.251Z,10.50
2022-07-27T14:16:58.118Z,13.00
2022-07-27T14:19:29.838Z,13.50
2022-07-27T14:22:24.007Z,13.50
2022-07-27T14:24:55.088Z,14.25
2022-07-27T14:27:26.442Z,12.00
2022-07-27T14:30:09.127Z,10.00
2022-07-27T14:33:35.172Z,14.33
2022-07-27T14:39:27.020Z,9.50
2022-07-27T14:41:59.247Z,9.50
2022-07-27T14:44:34.797Z,12.00
2022-07-27T14:47:05.819Z,12.50
2022-07-27T14:49:54.058Z,8.00
2022-07-27T15:09:37.916Z,6.00
2022-07-27T15:15:44.618Z,13.33
2022-07-27T15:18:51.605Z,14.25
2022-07-27T15:21:36.224Z,14.00
2022-07-27T15:24:46.321Z,12.00
2022-07-27T15:27:37.404Z,10.00
2022-07-27T15:30:17.461Z,11.33
2022-07-27T15:32:55.645Z,5.00
2022-07-27T15:35:27.894Z,6.00
2022-07-27T15:37:59.093Z,14.00
2022-07-27T15:40:59.856Z,17.00
2022-07-27T15:44:28.195Z,9.33
2022-07-27T15:52:49.298Z,8.00
2022-07-27T15:55:26.895Z,14.00
2022-07-27T15:58:08.027Z,10.67
2022-07-27T16:00:47.675Z,8.00
2022-07-27T16:14:56.661Z,9.50
2022-07-27T16:23:17.934Z,12.00
2022-07-27T16:33:28.564Z,6.00
2022-07-27T16:49:02.234Z,8.00
2022-07-27T16:52:58.468Z,14.25
2022-07-27T16:59:48.537Z,6.00
2022-07-27T17:03:27.132Z,6.00
2022-07-27T17:06:23.562Z,8.00
2022-07-27T17:08:54.247Z,10.00
2022-07-27T17:11:25.196Z,8.00
2022-07-27T17:13:58.929Z,10.00
2022-07-27T17:16:30.715Z,8.00
2022-07-27T17:19:01.307Z,14.00
2022-07-27T17:21:31.970Z,8.00
2022-07-27T17:24:02.609Z,8.50
2022-07-27T17:26:33.817Z,8.50
2022-07-27T17:29:04.371Z,14.75
2022-07-27T17:31:35.143Z,8.50
2022-07-27T17:34:05.990Z,11.33
2022-07-27T17:36:36.629Z,12.00
2022-07-27T17:39:08.059Z,10.00
2022-07-27T17:41:38.799Z,8.00
2022-07-27T17:44:08.952Z,6.50
2022-07-27T17:46:40.120Z,7.50
2022-07-27T17:49:11.182Z,10.50
2022-07-27T17:51:42.351Z,7.50
2022-07-27T17:54:13.001Z,6.00
2022-07-27T17:56:43.399Z,4.00
2022-07-27T17:59:35.826Z,7.33
2022-07-27T18:02:06.309Z,6.00
2022-07-27T18:04:39.419Z,6.00
2022-07-27T18:09:40.980Z,6.00
2022-07-27T18:12:11.494Z,10.00
2022-07-27T18:15:01.367Z,12.00
2022-07-27T18:17:32.306Z,13.33
2022-07-27T18:20:03.078Z,11.00
2022-07-27T18:22:38.330Z,9.00
2022-07-27T18:25:10.699Z,9.50
2022-07-27T18:27:42.165Z,7.50
2022-07-27T18:30:13.667Z,12.67
2022-07-27T18:32:46.479Z,13.50
2022-07-27T18:35:16.671Z,10.00
2022-07-27T18:37:46.912Z,12.00
2022-07-27T18:40:17.298Z,14.00
2022-07-27T18:42:47.790Z,9.00
2022-07-27T18:45:18.067Z,12.00
2022-07-27T18:47:49.298Z,5.00
2022-07-27T18:50:20.068Z,9.00
2022-07-27T18:52:50.299Z,11.00
2022-07-27T18:55:22.787Z,13.50
2022-07-27T18:58:00.151Z,6.00
2022-07-27T19:00:30.941Z,10.50
2022-07-27T19:03:01.509Z,12.00
2022-07-27T19:05:41.370Z,12.00
2022-07-27T19:08:13.806Z,14.75
2022-07-27T19:10:45.512Z,8.50
2022-07-27T19:13:15.639Z,12.50
2022-07-27T19:15:46.623Z,13.50
2022-07-27T19:18:16.783Z,8.00
2022-07-27T19:20:47.017Z,10.50
2022-07-27T19:23:17.180Z,4.50
2022-07-27T19:25:47.348Z,12.50
2022-07-27T19:28:20.489Z,4.00
2022-07-27T19:30:50.630Z,7.50
2022-07-27T19:33:22.424Z,6.00
2022-07-27T19:35:53.806Z,5.50
2022-07-27T19:40:56.174Z,13.00
2022-07-27T19:43:26.642Z,12.00
2022-07-27T19:45:57.007Z,15.00
2022-07-27T19:48:29.181Z,8.00
2022-07-27T19:51:06.390Z,12.00
2022-07-27T19:53:37.360Z,14.25
2022-07-27T19:56:07.666Z,15.00
2022-07-27T20:01:09.548Z,6.00
2022-07-27T20:03:53.331Z,4.00
2022-07-27T20:06:28.198Z,6.00
2022-07-27T20:09:00.853Z,7.00
2022-07-27T20:11:32.339Z,14.67
2022-07-27T20:14:03.859Z,12.00
2022-07-27T20:16:35.455Z,14.00
2022-07-27T20:19:05.687Z,10.00
2022-07-27T20:21:38.114Z,8.00
2022-07-27T20:24:08.544Z,8.50
2022-07-27T20:26:38.584Z,12.00
2022-07-27T20:29:09.112Z,11.00
2022-07-27T20:31:41.368Z,13.50
2022-07-27T20:34:11.489Z,8.00
2022-07-27T20:36:41.431Z,13.50
2022-07-27T20:39:16.898Z,6.00
2022-07-27T20:41:48.057Z,8.00
2022-07-27T20:44:18.257Z,8.00
2022-07-27T20:46:48.400Z,4.50
2022-07-27T20:49:18.786Z,12.00
2022-07-27T20:51:49.019Z,12.00
2022-07-27T20:54:19.169Z,12.00
2022-07-27T20:57:00.016Z,15.00
2022-07-27T20:59:30.353Z,9.50
2022-07-27T21:02:00.711Z,15.00
2022-07-27T21:04:30.838Z,8.00
2022-07-27T21:07:00.850Z,8.50
2022-07-27T21:09:32.909Z,6.00
2022-07-27T21:12:03.321Z,14.00
2022-07-27T21:14:33.818Z,8.67
2022-07-27T21:17:04.024Z,10.00
2022-07-27T21:19:34.479Z,14.00
2022-07-27T21:22:04.955Z,15.00
2022-07-27T21:24:36.768Z,15.00
2022-07-27T21:27:07.603Z,15.00
2022-07-27T21:29:39.896Z,13.00
2022-07-27T21:32:10.964Z,8.00
2022-07-27T21:34:41.353Z,10.50
2022-07-27T21:37:12.062Z,11.00
2022-07-27T21:42:11.949Z,8.00
2022-07-27T21:44:43.018Z,8.00
2022-07-27T21:47:14.641Z,8.00
2022-07-27T21:49:46.691Z,11.50
2022-07-27T21:52:17.107Z,10.00
2022-07-27T21:54:47.359Z,6.00
2022-07-27T21:57:17.513Z,7.50
2022-07-27T21:59:48.731Z,6.00
2022-07-27T22:02:18.894Z,8.50
2022-07-27T22:04:49.152Z,8.50
2022-07-27T22:07:19.716Z,11.50
2022-07-27T22:09:50.222Z,10.00
2022-07-27T22:12:20.361Z,6.00
2022-07-27T22:19:50.170Z,6.50
2022-07-27T22:22:20.370Z,5.00
2022-07-27T22:24:50.884Z,5.00
2022-07-27T22:27:21.146Z,11.00
2022-07-27T22:29:52.364Z,8.00
2022-07-27T22:32:23.204Z,13.00
2022-07-27T22:34:53.585Z,6.00
2022-07-27T22:39:53.923Z,14.50
2022-07-27T22:42:24.402Z,12.50
2022-07-27T22:44:54.699Z,12.00
2022-07-27T22:47:24.778Z,13.50
2022-07-27T22:49:54.898Z,4.50
2022-07-27T22:52:25.324Z,10.00
2022-07-27T22:54:56.187Z,8.50
2022-07-27T22:57:27.039Z,14.00
2022-07-27T22:59:57.819Z,10.50
2022-07-27T23:02:29.437Z,19.25
2022-07-27T23:05:00.864Z,10.00
2022-07-27T23:07:31.696Z,12.00
2022-07-27T23:10:01.922Z,14.25
2022-07-27T23:12:32.531Z,12.67
2022-07-27T23:15:03.196Z,12.00
2022-07-27T23:17:34.181Z,12.50
2022-07-27T23:20:05.026Z,6.00
2022-07-27T23:22:35.314Z,12.00
2022-07-27T23:25:07.219Z,12.67
2022-07-27T23:27:37.721Z,15.00
2022-07-27T23:30:09.105Z,8.00
2022-07-27T23:32:40.740Z,13.50
2022-07-27T23:35:11.918Z,14.33
2022-07-27T23:37:42.422Z,14.50
2022-07-27T23:40:13.242Z,14.33
2022-07-27T23:42:43.520Z,8.00
2022-07-27T23:45:14.196Z,12.00
2022-07-27T23:47:44.764Z,13.50
2022-07-27T23:50:15.146Z,13.00
2022-07-27T23:55:15.474Z,11.50
2022-07-27T23:57:45.685Z,4.00
